Time;durP1;ratioP1;P1;durP2;ratioP2;P2;SDS_P1;SDS_P2;PMS_P1;PMS_P2;Temp;Humidity;BMP_temperature;BMP_pressure;BME280_temperature;BME280_humidity;BME280_pressure;Samples;Min_cycle;Max_cycle;Signal;HPM_P1;HPM_P2
2022/12/04 00:01:23;;;;;;;44.88;21.20;;;;;;;-0.26;100.00;101735.66;5068398;28;20108;-71
2022/12/04 00:03:58;;;;;;;48.90;24.15;;;;;;;-0.25;100.00;101739.09;5068601;28;20032;-72
2022/12/04 00:06:24;;;;;;;52.22;25.83;;;;;;;-0.26;100.00;101729.56;5068737;28;20025;-72
2022/12/04 00:08:50;;;;;;;55.97;25.65;;;;;;;-0.27;100.00;101723.47;5067076;28;20049;-72
2022/12/04 00:11:19;;;;;;;46.53;22.13;;;;;;;-0.24;100.00;101728.53;5067187;28;20142;-73
2022/12/04 00:13:45;;;;;;;54.08;26.60;;;;;;;-0.24;100.00;101731.16;5048512;28;20056;-73
2022/12/04 00:16:13;;;;;;;45.53;20.85;;;;;;;-0.25;100.00;101724.19;5049311;28;20124;-74
2022/12/04 00:18:39;;;;;;;47.90;20.83;;;;;;;-0.28;100.00;101719.19;5048186;28;20043;-72
2022/12/04 00:21:07;;;;;;;43.15;21.33;;;;;;;-0.23;100.00;101726.72;5047909;28;20079;-73
2022/12/04 00:23:34;;;;;;;46.45;20.65;;;;;;;-0.24;100.00;101719.78;5049191;28;20029;-71
2022/12/04 00:26:05;;;;;;;55.15;24.92;;;;;;;-0.26;100.00;101714.69;5049028;28;20140;-72
2022/12/04 00:28:31;;;;;;;55.13;22.60;;;;;;;-0.29;100.00;101717.50;5049133;28;20035;-73
2022/12/04 00:30:56;;;;;;;45.95;21.00;;;;;;;-0.22;100.00;101715.28;5049069;28;20029;-72
2022/12/04 00:33:22;;;;;;;48.72;22.60;;;;;;;-0.21;100.00;101714.34;5049176;28;20029;-72
2022/12/04 00:35:47;;;;;;;50.45;23.85;;;;;;;-0.19;100.00;101722.94;5048586;28;20043;-72
2022/12/04 00:38:12;;;;;;;52.50;21.20;;;;;;;-0.20;100.00;101712.56;5049224;28;20036;-72
2022/12/04 00:40:38;;;;;;;46.55;21.95;;;;;;;-0.25;100.00;101707.66;5048949;28;20035;-72
2022/12/04 00:43:03;;;;;;;45.13;23.02;;;;;;;-0.19;100.00;101712.44;5048538;28;20403;-72
2022/12/04 00:45:28;;;;;;;50.50;23.92;;;;;;;-0.21;100.00;101709.09;5047783;28;20043;-72
2022/12/04 00:47:54;;;;;;;47.88;22.30;;;;;;;-0.19;100.00;101709.84;5048751;28;20021;-72
2022/12/04 00:50:19;;;;;;;46.83;23.25;;;;;;;-0.20;100.00;101707.34;5048988;28;20087;-70
2022/12/04 00:52:45;;;;;;;49.10;23.83;;;;;;;-0.21;100.00;101709.09;5054128;28;20475;-71
2022/12/04 00:55:10;;;;;;;50.67;23.27;;;;;;;-0.24;100.00;101707.56;5071765;28;20047;-71
2022/12/04 00:57:36;;;;;;;45.85;23.67;;;;;;;-0.27;100.00;101697.25;5071051;28;20032;-72
2022/12/04 01:00:03;;;;;;;51.15;22.75;;;;;;;-0.21;100.00;101709.09;5071199;28;20029;-71
2022/12/04 01:02:29;;;;;;;57.10;24.88;;;;;;;-0.22;100.00;101716.13;5071594;28;20031;-71
2022/12/04 01:04:54;;;;;;;48.45;23.23;;;;;;;-0.22;100.00;101708.25;5071533;28;20036;-71
2022/12/04 01:07:19;;;;;;;45.85;21.30;;;;;;;-0.21;100.00;101711.72;5071564;28;20028;-71
2022/12/04 01:09:45;;;;;;;44.10;21.60;;;;;;;-0.21;100.00;101714.34;5071093;28;20029;-71
2022/12/04 01:12:10;;;;;;;48.72;21.83;;;;;;;-0.23;100.00;101718.88;5070352;28;20044;-73
2022/12/04 01:14:35;;;;;;;50.38;22.92;;;;;;;-0.26;100.00;101714.69;5071223;28;20151;-71
2022/12/04 01:17:01;;;;;;;41.72;22.33;;;;;;;-0.24;100.00;101717.16;5070082;28;20039;-71
2022/12/04 01:19:26;;;;;;;46.88;21.10;;;;;;;-0.23;100.00;101727.56;5071273;28;20028;-71
2022/12/04 01:21:51;;;;;;;45.42;21.50;;;;;;;-0.23;100.00;101721.50;5071148;28;20028;-71
2022/12/04 01:24:17;;;;;;;49.70;23.00;;;;;;;-0.25;100.00;101713.72;5070553;28;20028;-71
2022/12/04 01:26:42;;;;;;;54.30;22.73;;;;;;;-0.21;100.00;101722.19;5071006;28;20056;-71
2022/12/04 01:29:07;;;;;;;50.95;23.40;;;;;;;-0.22;100.00;101733.66;5071055;28;20025;-71
2022/12/04 01:31:33;;;;;;;46.13;22.33;;;;;;;-0.19;100.00;101728.19;5070575;28;20036;-71
2022/12/04 01:33:58;;;;;;;45.03;21.08;;;;;;;-0.21;100.00;101735.31;5052937;28;20036;-72
2022/12/04 01:36:26;;;;;;;44.50;20.92;;;;;;;-0.20;100.00;101733.56;5069341;28;20036;-71
2022/12/04 01:38:52;;;;;;;42.70;21.05;;;;;;;-0.21;100.00;101719.56;5070749;28;20040;-71
2022/12/04 01:41:24;;;;;;;45.42;21.48;;;;;;;-0.21;100.00;101727.44;5070719;28;20024;-71
2022/12/04 01:44:08;;;;;;;;;;;;;;;-0.22;100.00;101717.91;5070622;28;20036;-71
2022/12/04 01:46:33;;;;;;;43.67;19.83;;;;;;;-0.21;100.00;101714.34;5070730;28;19923;-71
2022/12/04 01:48:59;;;;;;;44.60;22.70;;;;;;;-0.22;100.00;101716.13;5070720;28;20060;-71
2022/12/04 01:51:28;;;;;;;50.92;23.83;;;;;;;-0.22;100.00;101713.50;5067129;28;20033;-71
2022/12/04 01:54:00;;;;;;;48.80;22.63;;;;;;;-0.23;100.00;101703.13;5070431;28;20032;-71
2022/12/04 01:56:37;;;;;;;46.30;26.73;;;;;;;-0.22;100.00;101712.66;5070594;28;20472;-71
2022/12/04 01:59:02;;;;;;;45.03;21.75;;;;;;;-0.28;100.00;101687.72;5070425;28;20463;-71
2022/12/04 02:01:35;;;;;;;44.75;22.13;;;;;;;-0.22;100.00;101704.81;5059233;28;20028;-71
2022/12/04 02:04:01;;;;;;;52.72;26.83;;;;;;;-0.19;100.00;101701.97;5053520;28;20122;-73
2022/12/04 02:06:27;;;;;;;50.03;26.30;;;;;;;-0.20;100.00;101702.94;5068972;28;20082;-72
2022/12/04 02:08:52;;;;;;;45.40;24.27;;;;;;;-0.26;100.00;101700.75;5069950;28;20036;-72
2022/12/04 02:11:36;;;;;;;46.63;20.83;;;;;;;-0.25;100.00;101702.41;5068894;28;20102;-73
2022/12/04 02:14:41;;;;;;;48.45;25.85;;;;;;;-0.22;100.00;101705.63;5069694;28;20053;-73
2022/12/04 02:17:26;;;;;;;47.65;23.70;;;;;;;-0.22;100.00;101710.06;5070109;28;20028;-72
2022/12/04 02:20:22;;;;;;;52.83;24.80;;;;;;;-0.19;100.00;101707.22;5069645;28;20035;-73
2022/12/04 02:23:07;;;;;;;49.63;22.40;;;;;;;-0.18;100.00;101702.81;5050543;28;20028;-71
2022/12/04 02:25:38;;;;;;;44.40;22.15;;;;;;;-0.19;100.00;101712.44;5050732;28;20021;-72
2022/12/04 02:28:18;;;;;;;48.15;21.23;;;;;;;-0.19;100.00;101704.59;5049516;28;20025;-73
2022/12/04 02:30:44;;;;;;;48.90;24.83;;;;;;;-0.22;100.00;101704.81;5050531;28;20904;-72
2022/12/04 02:33:13;;;;;;;44.22;24.80;;;;;;;-0.21;100.00;101703.84;5033007;28;20035;-72
2022/12/04 02:36:01;;;;;;;52.13;22.77;;;;;;;-0.21;100.00;101701.22;5050507;28;20478;-73
2022/12/04 02:38:39;;;;;;;44.90;22.70;;;;;;;-0.21;100.00;101703.84;5050706;28;20066;-73
2022/12/04 02:41:20;;;;;;;48.75;24.35;;;;;;;-0.21;100.00;101701.22;5051012;28;20988;-73
2022/12/04 02:43:51;;;;;;;45.67;19.95;;;;;;;-0.23;100.00;101690.03;5053839;28;20482;-73
2022/12/04 02:46:23;;;;;;;44.35;21.92;;;;;;;-0.24;100.00;101689.19;5069632;28;20024;-72
2022/12/04 02:48:52;;;;;;;50.25;23.52;;;;;;;-0.18;100.00;101692.31;5069575;28;20037;-73
2022/12/04 02:51:20;;;;;;;47.08;23.13;;;;;;;-0.26;100.00;101692.88;5068040;28;20450;-73
2022/12/04 02:54:06;;;;;;;51.92;22.67;;;;;;;-0.22;100.00;101689.06;5062565;28;20032;-71
2022/12/04 02:56:38;;;;;;;47.97;22.65;;;;;;;-0.22;100.00;101683.84;5050832;28;20040;-72
2022/12/04 02:59:08;;;;;;;;;;;;;;;-0.21;100.00;101685.50;5050801;28;20025;-71
2022/12/04 03:01:39;;;;;;;43.53;19.65;;;;;;;-0.24;100.00;101672.59;5062426;28;19912;-71
2022/12/04 03:04:14;;;;;;;52.13;24.75;;;;;;;-0.23;100.00;101684.78;5069150;28;20031;-71
2022/12/04 03:06:43;;;;;;;47.80;23.58;;;;;;;-0.26;100.00;101674.53;5069156;28;20032;-73
2022/12/04 03:09:31;;;;;;;48.90;23.10;;;;;;;-0.22;100.00;101683.84;5068184;28;20040;-72
2022/12/04 03:12:06;;;;;;;45.72;20.95;;;;;;;-0.24;100.00;101672.59;5049874;28;20033;-72
2022/12/04 03:14:37;;;;;;;55.10;25.30;;;;;;;-0.32;100.00;101665.28;5049603;28;20489;-72
2022/12/04 03:17:15;;;;;;;48.35;25.02;;;;;;;-0.26;100.00;101677.16;5050015;28;20025;-73
2022/12/04 03:19:50;;;;;;;49.55;23.90;;;;;;;-0.26;100.00;101685.84;5049936;28;20033;-73
2022/12/04 03:22:20;;;;;;;42.92;20.13;;;;;;;-0.24;100.00;101688.34;5049967;28;20055;-72
2022/12/04 03:24:50;;;;;;;49.72;23.20;;;;;;;-0.26;100.00;101679.75;5050320;28;20020;-73
2022/12/04 03:27:33;;;;;;;44.25;25.02;;;;;;;-0.23;100.00;101684.78;5049812;28;20472;-73
2022/12/04 03:30:10;;;;;;;52.15;23.23;;;;;;;-0.23;100.00;101685.63;5049907;28;20029;-73
2022/12/04 03:33:06;;;;;;;47.85;24.92;;;;;;;-0.22;100.00;101682.06;5052068;28;20888;-73
2022/12/04 03:35:37;;;;;;;52.15;23.40;;;;;;;-0.22;100.00;101678.59;5062186;28;20111;-72
2022/12/04 03:38:08;;;;;;;48.95;22.73;;;;;;;-0.20;100.00;101683.75;5049749;28;20483;-73
2022/12/04 03:40:54;;;;;;;54.67;28.10;;;;;;;-0.19;100.00;101670.50;5065969;28;20032;-71
2022/12/04 03:43:25;;;;;;;46.25;21.48;;;;;;;-0.18;100.00;101677.44;5068701;28;20024;-71
2022/12/04 03:45:55;;;;;;;47.20;24.67;;;;;;;-0.21;100.00;101669.78;5048988;28;20044;-71
2022/12/04 03:48:25;;;;;;;45.80;23.67;;;;;;;-0.20;100.00;101668.00;5049579;28;20271;-71
2022/12/04 03:50:50;;;;;;;47.55;23.67;;;;;;;-0.20;100.00;101660.97;5048434;28;20040;-72
2022/12/04 03:53:24;;;;;;;47.60;20.80;;;;;;;-0.20;100.00;101668.00;5049559;28;20036;-71
2022/12/04 03:56:00;;;;;;;51.55;23.42;;;;;;;-0.20;100.00;101666.22;5049631;28;20120;-71
2022/12/04 03:58:31;;;;;;;43.97;17.90;;;;;;;-0.23;100.00;101669.91;5049642;28;20055;-71
2022/12/04 04:00:58;;;;;;;47.25;21.90;;;;;;;-0.19;100.00;101673.13;5049173;28;20104;-71
2022/12/04 04:03:32;;;;;;;46.67;23.95;;;;;;;-0.24;100.00;101659.50;5049139;28;20075;-71
2022/12/04 04:06:06;;;;;;;48.20;23.83;;;;;;;-0.20;100.00;101668.84;5049425;28;20061;-71
2022/12/04 04:08:36;;;;;;;46.17;22.92;;;;;;;-0.17;100.00;101671.25;5049430;28;20033;-72
2022/12/04 04:11:10;;;;;;;46.75;23.25;;;;;;;-0.20;100.00;101666.22;5049129;28;20025;-71
2022/12/04 04:25:03;;;;;;;51.00;23.95;;;;;;;-0.22;100.00;101670.72;5066094;28;20051;-72
2022/12/04 04:27:29;;;;;;;48.63;26.63;;;;;;;-0.20;100.00;101668.84;5070209;28;20056;-71
2022/12/04 04:29:54;;;;;;;48.90;22.23;;;;;;;-0.19;100.00;101659.19;5072189;28;20059;-72
2022/12/04 04:32:28;;;;;;;38.00;19.38;;;;;;;-0.18;100.00;101663.47;5072051;28;20430;-72
2022/12/04 04:35:08;;;;;;;48.40;23.23;;;;;;;-0.19;100.00;101661.81;5071966;28;20032;-71
2022/12/04 04:37:50;;;;;;;48.53;23.73;;;;;;;-0.19;100.00;101661.81;5072059;28;20053;-72
2022/12/04 04:40:21;;;;;;;42.90;20.85;;;;;;;-0.22;100.00;101661.06;5071874;28;20028;-71
2022/12/04 04:42:49;;;;;;;;;;;;;;;-0.16;100.00;101658.97;5053207;28;20112;-72
2022/12/04 04:45:30;;;;;;;50.83;21.20;;;;;;;-0.18;100.00;101663.47;5052430;28;19909;-72
2022/12/04 04:48:08;;;;;;;51.65;24.17;;;;;;;-0.16;100.00;101669.47;5058770;28;20086;-71
2022/12/04 04:50:35;;;;;;;47.45;23.45;;;;;;;-0.17;100.00;101676.50;5071666;28;20028;-71
2022/12/04 04:53:05;;;;;;;43.95;22.50;;;;;;;-0.17;100.00;101671.25;5071574;28;20028;-71
2022/12/04 04:55:33;;;;;;;52.95;23.48;;;;;;;-0.17;100.00;101666.00;5071669;28;20016;-71
2022/12/04 04:58:25;;;;;;;46.35;24.38;;;;;;;-0.17;100.00;101662.56;5071705;28;20036;-71
2022/12/04 05:01:13;;;;;;;;;;;;;;;-0.15;100.00;101668.53;5069886;28;20040;-71
2022/12/04 05:03:40;;;;;;;52.75;23.95;;;;;;;-0.19;100.00;101673.13;5068264;28;20310;-71
2022/12/04 05:06:05;;;;;;;58.13;25.08;;;;;;;-0.17;100.00;101667.78;5071389;28;20383;-71
2022/12/04 05:08:31;;;;;;;52.30;24.88;;;;;;;-0.12;100.00;101670.94;5071473;28;20090;-71
2022/12/04 05:10:56;;;;;;;56.03;28.17;;;;;;;-0.19;100.00;101670.50;5071358;28;21008;-71
2022/12/04 05:13:22;;;;;;;56.67;22.15;;;;;;;-0.18;100.00;101666.97;5071091;28;20060;-71
2022/12/04 05:16:04;;;;;;;47.30;21.88;;;;;;;-0.17;100.00;101673.88;5071214;28;20094;-71
2022/12/04 05:18:31;;;;;;;43.17;22.40;;;;;;;-0.15;100.00;101674.59;5071345;28;20064;-72
2022/12/04 05:20:56;;;;;;;45.65;23.42;;;;;;;-0.15;100.00;101676.41;5071463;28;20020;-72
2022/12/04 05:23:22;;;;;;;47.15;23.00;;;;;;;-0.17;100.00;101676.50;5071143;28;20487;-71
2022/12/04 05:25:48;;;;;;;49.83;24.10;;;;;;;-0.11;100.00;101685.72;5069676;28;20032;-71
2022/12/04 05:28:14;;;;;;;50.80;23.10;;;;;;;-0.15;100.00;101674.59;5058115;28;20025;-71
2022/12/04 05:30:39;;;;;;;46.15;20.83;;;;;;;-0.15;100.00;101671.16;5069497;28;20172;-71
2022/12/04 05:33:05;;;;;;;46.88;21.38;;;;;;;-0.13;100.00;101674.47;5071106;28;20041;-71
2022/12/04 05:35:30;;;;;;;50.60;24.52;;;;;;;-0.13;100.00;101677.97;5070941;28;20028;-71
2022/12/04 05:37:55;;;;;;;54.92;23.05;;;;;;;-0.16;100.00;101672.91;5070468;28;20147;-71
2022/12/04 05:40:21;;;;;;;50.80;25.30;;;;;;;-0.20;100.00;101662.78;5070800;28;20028;-71
2022/12/04 05:42:46;;;;;;;51.47;23.25;;;;;;;-0.13;100.00;101677.97;5070032;28;20032;-71
2022/12/04 05:45:11;;;;;;;48.70;26.48;;;;;;;-0.13;100.00;101669.25;5070632;28;20106;-71
2022/12/04 05:47:41;;;;;;;41.17;20.77;;;;;;;-0.10;100.00;101675.13;5069493;28;20035;-71
2022/12/04 05:50:08;;;;;;;51.10;25.23;;;;;;;-0.10;100.00;101666.44;5070412;28;20028;-71
2022/12/04 05:52:33;;;;;;;50.20;26.60;;;;;;;-0.09;100.00;101674.16;5070684;28;20037;-71
2022/12/04 05:54:59;;;;;;;46.50;21.27;;;;;;;-0.08;100.00;101667.13;5070698;28;20033;-71
2022/12/04 05:57:24;;;;;;;48.22;23.38;;;;;;;-0.10;100.00;101663.81;5070430;28;20028;-71
2022/12/04 05:59:50;;;;;;;42.88;22.40;;;;;;;-0.13;100.00;101662.25;5070363;28;20379;-71
2022/12/04 06:02:15;;;;;;;54.38;23.60;;;;;;;-0.10;100.00;101655.94;5070365;28;20025;-71
2022/12/04 06:04:41;;;;;;;47.95;23.58;;;;;;;-0.11;100.00;101665.56;5070257;28;20024;-71
2022/12/04 06:07:06;;;;;;;44.85;21.10;;;;;;;-0.10;100.00;101658.56;5069617;28;20037;-71
2022/12/04 06:09:31;;;;;;;40.80;21.48;;;;;;;-0.12;100.00;101649.97;5070115;28;20055;-71
2022/12/04 06:11:57;;;;;;;43.65;21.02;;;;;;;-0.12;100.00;101645.56;5070179;28;20064;-71
2022/12/04 06:14:23;;;;;;;47.75;22.88;;;;;;;-0.12;100.00;101649.97;5068718;28;20064;-71
2022/12/04 06:16:48;;;;;;;48.00;23.85;;;;;;;-0.13;100.00;101649.13;5070100;28;20032;-71
2022/12/04 06:19:16;;;;;;;56.85;25.83;;;;;;;-0.12;100.00;101649.97;5070082;28;20032;-71
2022/12/04 06:21:44;;;;;;;47.08;22.27;;;;;;;-0.12;100.00;101647.34;5068834;28;20028;-71
2022/12/04 06:24:13;;;;;;;52.70;25.75;;;;;;;-0.14;100.00;101652.69;5070139;28;20059;-71
2022/12/04 06:26:39;;;;;;;49.25;23.90;;;;;;;-0.13;100.00;101659.63;5070132;28;20025;-71
2022/12/04 06:29:04;;;;;;;49.63;23.63;;;;;;;-0.12;100.00;101656.03;5057995;28;20048;-70
2022/12/04 06:31:32;;;;;;;44.65;21.63;;;;;;;-0.11;100.00;101660.31;5048907;28;20036;-71
2022/12/04 06:33:58;;;;;;;46.80;25.35;;;;;;;-0.10;100.00;101661.19;5050617;28;20426;-71
2022/12/04 06:36:24;;;;;;;47.15;22.08;;;;;;;-0.10;100.00;101664.66;5050220;28;20082;-71
2022/12/04 06:38:50;;;;;;;45.13;21.92;;;;;;;-0.14;100.00;101655.31;5050646;28;20040;-71
2022/12/04 06:41:18;;;;;;;49.75;22.40;;;;;;;-0.12;100.00;101658.66;5050425;28;20044;-70
2022/12/04 06:43:44;;;;;;;46.05;24.60;;;;;;;-0.10;100.00;101666.44;5050620;28;20028;-70
2022/12/04 06:46:13;;;;;;;46.38;20.90;;;;;;;-0.09;100.00;101663.69;5050539;28;20373;-71
2022/12/04 06:48:39;;;;;;;43.30;20.50;;;;;;;-0.11;100.00;101664.75;5050488;28;20017;-71
2022/12/04 06:51:08;;;;;;;49.72;23.42;;;;;;;-0.16;100.00;101658.97;5049131;28;20059;-70
2022/12/04 06:53:34;;;;;;;40.17;20.77;;;;;;;-0.10;100.00;101671.69;5050242;28;20079;-70
2022/12/04 06:56:02;;;;;;;40.83;21.88;;;;;;;-0.08;100.00;101677.63;5050422;28;20396;-71
2022/12/04 06:58:28;;;;;;;38.88;19.27;;;;;;;-0.09;100.00;101679.41;5050244;28;20043;-71
2022/12/04 07:00:55;;;;;;;38.72;20.60;;;;;;;-0.11;100.00;101673.44;5050165;28;20021;-70
2022/12/04 07:03:21;;;;;;;45.13;21.48;;;;;;;-0.07;100.00;101671.47;5050185;28;20384;-71
2022/12/04 07:05:47;;;;;;;45.78;23.92;;;;;;;-0.10;100.00;101672.50;5050210;28;20024;-70
2022/12/04 07:08:13;;;;;;;38.25;18.95;;;;;;;-0.09;100.00;101675.97;5049500;28;20051;-70
2022/12/04 07:10:39;;;;;;;36.92;19.13;;;;;;;-0.09;100.00;101679.41;5048225;28;20059;-70
2022/12/04 07:13:05;;;;;;;43.70;24.15;;;;;;;-0.08;100.00;101688.13;5068721;28;20452;-70
2022/12/04 07:15:32;;;;;;;42.00;21.88;;;;;;;-0.10;100.00;101685.63;5067561;28;20057;-71
2022/12/04 07:17:58;;;;;;;44.92;20.73;;;;;;;-0.09;100.00;101686.44;5068991;28;20043;-70
2022/12/04 07:20:23;;;;;;;40.83;22.20;;;;;;;-0.08;100.00;101688.13;5068927;28;20029;-70
2022/12/04 07:22:49;;;;;;;45.40;22.85;;;;;;;-0.07;100.00;101695.06;5057413;28;20029;-70
2022/12/04 07:25:14;;;;;;;41.35;19.35;;;;;;;-0.07;100.00;101706.38;5049895;28;20111;-70
2022/12/04 07:27:39;;;;;;;44.33;22.58;;;;;;;-0.12;100.00;101695.38;5049759;28;20044;-71
2022/12/04 07:30:05;;;;;;;35.17;18.48;;;;;;;-0.04;100.00;101705.31;5049740;28;20165;-71
2022/12/04 07:32:31;;;;;;;48.35;22.45;;;;;;;-0.06;100.00;101702.78;5049278;28;20029;-70
2022/12/04 07:34:56;;;;;;;40.65;18.27;;;;;;;-0.05;100.00;101708.91;5064772;28;20041;-70
2022/12/04 07:37:22;;;;;;;39.55;20.67;;;;;;;-0.05;100.00;101704.50;5068733;28;20112;-70
2022/12/04 07:39:50;;;;;;;37.10;18.52;;;;;;;-0.05;100.00;101709.75;5068588;28;20031;-71
2022/12/04 07:42:16;;;;;;;38.35;18.98;;;;;;;-0.05;100.00;101701.88;5068619;28;20024;-70
2022/12/04 07:44:41;;;;;;;39.50;22.75;;;;;;;-0.04;100.00;101698.28;5068956;28;20036;-71
2022/12/04 07:47:07;;;;;;;38.50;18.75;;;;;;;-0.10;100.00;101687.41;5068828;28;20037;-71
2022/12/04 07:49:32;;;;;;;43.25;19.13;;;;;;;-0.04;100.00;101695.66;5068600;28;20430;-70
2022/12/04 07:51:57;;;;;;;37.90;19.35;;;;;;;0.00;100.00;101696.31;5068307;28;20157;-71
2022/12/04 07:54:23;;;;;;;40.75;20.98;;;;;;;-0.04;100.00;101706.16;5068148;28;20048;-71
2022/12/04 07:56:48;;;;;;;41.38;16.60;;;;;;;-0.02;100.00;101698.19;5058672;28;20036;-71
2022/12/04 07:59:13;;;;;;;38.67;17.58;;;;;;;-0.03;100.00;101702.59;5068750;28;20387;-71
2022/12/04 08:01:39;;;;;;;38.38;17.25;;;;;;;-0.01;100.00;101705.09;5070950;28;20036;-72
2022/12/04 08:04:04;;;;;;;37.63;19.13;;;;;;;0.02;100.00;101714.53;5054637;28;20040;-72
2022/12/04 08:06:32;;;;;;;40.58;19.90;;;;;;;0.01;100.00;101712.88;5072547;28;20044;-72
2022/12/04 08:08:57;;;;;;;35.08;18.00;;;;;;;0.04;100.00;101720.53;5072087;28;20036;-71
2022/12/04 08:11:25;;;;;;;42.63;20.95;;;;;;;0.05;100.00;101716.94;5072014;28;20067;-71
2022/12/04 08:13:59;;;;;;;35.50;18.63;;;;;;;0.06;100.00;101709.00;5071037;28;20067;-71
2022/12/04 08:16:26;;;;;;;36.95;17.35;;;;;;;0.08;100.00;101721.97;5071726;28;20036;-79
2022/12/04 08:18:52;;;;;;;40.58;17.55;;;;;;;0.09;100.00;101721.03;5072512;28;20028;-72
2022/12/04 08:21:20;;;;;;;35.92;17.15;;;;;;;0.10;100.00;101725.34;5069804;28;20067;-75
2022/12/04 08:23:47;;;;;;;38.63;16.92;;;;;;;0.12;100.00;101726.06;5065424;28;20025;-74
2022/12/04 08:26:13;;;;;;;37.10;16.85;;;;;;;0.09;100.00;101719.25;5062692;28;20465;-74
2022/12/04 08:28:40;;;;;;;38.20;17.88;;;;;;;0.13;100.00;101731.22;5062313;28;20032;-74
2022/12/04 08:31:15;;;;;;;36.08;17.48;;;;;;;0.14;100.00;101725.03;5058789;28;20029;-74
2022/12/04 08:33:42;;;;;;;37.38;18.98;;;;;;;0.13;100.00;101723.34;5058362;28;20112;-75
2022/12/04 08:36:09;;;;;;;33.90;15.35;;;;;;;0.17;100.00;101727.41;5055690;28;20025;-74
2022/12/04 08:38:35;;;;;;;35.30;19.38;;;;;;;0.17;100.00;101719.56;5062487;28;20120;-74
2022/12/04 08:41:02;;;;;;;37.55;18.38;;;;;;;0.22;100.00;101721.88;5068522;28;20964;-73
2022/12/04 08:43:28;;;;;;;35.92;16.65;;;;;;;0.20;100.00;101708.00;5064177;28;20476;-74
2022/12/04 08:45:59;;;;;;;36.63;15.35;;;;;;;0.26;100.00;101712.81;5058237;28;20718;-74
2022/12/04 08:48:25;;;;;;;38.07;16.23;;;;;;;0.28;100.00;101715.34;5063610;28;20020;-74
2022/12/04 08:50:51;;;;;;;36.35;18.85;;;;;;;0.29;100.00;101707.38;5064565;28;20033;-75
2022/12/04 08:53:16;;;;;;;32.83;14.90;;;;;;;0.35;100.00;101711.34;5056680;28;20043;-77
2022/12/04 08:55:42;;;;;;;37.13;15.82;;;;;;;0.36;100.00;101705.13;5054158;28;20055;-69
2022/12/04 08:58:07;;;;;;;41.63;20.30;;;;;;;0.38;100.00;101706.72;5055594;28;20098;-73
2022/12/04 09:00:33;;;;;;;46.70;22.10;;;;;;;0.41;100.00;101703.03;5071348;28;20032;-73
2022/12/04 09:02:58;;;;;;;36.78;18.92;;;;;;;0.41;100.00;101701.22;5071395;28;20103;-72
2022/12/04 09:05:23;;;;;;;36.20;17.42;;;;;;;0.44;100.00;101701.00;5071450;28;20028;-72
2022/12/04 09:07:49;;;;;;;30.45;16.45;;;;;;;0.47;100.00;101709.63;5071593;28;20471;-73
2022/12/04 09:10:14;;;;;;;35.15;18.63;;;;;;;0.46;100.00;101703.53;5066039;28;20158;-72
2022/12/04 09:12:39;;;;;;;33.00;16.58;;;;;;;0.43;100.00;101699.34;5050950;28;20029;-72
2022/12/04 09:15:06;;;;;;;35.45;17.90;;;;;;;0.49;100.00;101705.94;5062830;28;20057;-70
2022/12/04 09:17:34;;;;;;;33.45;17.08;;;;;;;0.50;100.00;101705.00;5052633;28;20029;-71
2022/12/04 09:20:00;;;;;;;32.85;16.58;;;;;;;0.50;100.00;101699.75;5052073;28;20017;-71
2022/12/04 09:22:25;;;;;;;35.05;16.83;;;;;;;0.47;100.00;101707.81;5051864;28;20057;-71
2022/12/04 09:24:50;;;;;;;28.77;14.05;;;;;;;0.44;100.00;101714.13;5051753;28;20083;-71
2022/12/04 09:27:16;;;;;;;34.97;15.20;;;;;;;0.47;100.00;101726.19;5051894;28;20083;-71
2022/12/04 09:29:41;;;;;;;28.60;12.07;;;;;;;0.47;100.00;101714.88;5052025;28;20051;-71
2022/12/04 09:32:06;;;;;;;29.55;16.23;;;;;;;0.46;100.00;101719.28;5051793;28;20043;-73
2022/12/04 09:34:32;;;;;;;29.50;13.88;;;;;;;0.41;100.00;101710.91;5051884;28;20086;-71
2022/12/04 09:36:57;;;;;;;30.77;13.18;;;;;;;0.40;100.00;101717.94;5050552;28;20519;-71
2022/12/04 09:39:22;;;;;;;34.42;13.75;;;;;;;0.43;100.00;101719.50;5051694;28;20071;-71
2022/12/04 09:42:03;;;;;;;30.98;14.90;;;;;;;0.44;100.00;101723.78;5051625;28;20025;-71
2022/12/04 09:44:37;;;;;;;29.03;13.23;;;;;;;0.42;100.00;101717.84;5051607;28;20021;-71
2022/12/04 09:47:35;;;;;;;30.00;13.15;;;;;;;0.45;100.00;101722.88;5051526;28;20364;-71
2022/12/04 09:50:10;;;;;;;33.00;16.38;;;;;;;0.43;100.00;101717.72;5051469;28;20021;-71
2022/12/04 09:52:49;;;;;;;30.70;13.55;;;;;;;0.38;100.00;101724.25;5051406;28;20039;-71
2022/12/04 09:55:24;;;;;;;30.73;13.50;;;;;;;0.39;100.00;101718.91;5053685;28;20039;-73
2022/12/04 09:57:54;;;;;;;33.97;14.68;;;;;;;0.39;100.00;101712.78;5053818;28;20074;-70
2022/12/04 10:00:20;;;;;;;32.15;15.52;;;;;;;0.38;100.00;101721.63;5055839;28;20056;-66
2022/12/04 10:02:57;;;;;;;31.25;15.77;;;;;;;0.35;100.00;101720.06;5056407;28;20446;-66
2022/12/04 10:05:44;;;;;;;32.08;15.15;;;;;;;0.34;100.00;101728.88;5054650;28;20552;-66
2022/12/04 10:08:27;;;;;;;26.77;12.20;;;;;;;0.36;100.00;101716.47;5056809;28;20037;-66
2022/12/04 10:10:52;;;;;;;31.55;14.43;;;;;;;0.33;100.00;101721.94;5054884;28;20051;-68
2022/12/04 10:13:28;;;;;;;27.02;13.80;;;;;;;0.33;100.00;101721.94;5055205;28;20024;-66
2022/12/04 10:16:19;;;;;;;29.75;14.93;;;;;;;0.32;100.00;101719.44;5055681;28;20103;-66
2022/12/04 10:19:07;;;;;;;27.70;15.50;;;;;;;0.33;100.00;101715.84;5043680;28;20032;-66
2022/12/04 10:21:55;;;;;;;30.30;15.15;;;;;;;0.34;100.00;101722.75;5054872;28;20479;-66
2022/12/04 10:24:20;;;;;;;31.73;14.88;;;;;;;0.33;100.00;101719.31;5055163;28;20054;-67
2022/12/04 10:26:47;;;;;;;27.95;14.75;;;;;;;0.32;100.00;101725.50;5055627;28;20425;-67
2022/12/04 10:29:26;;;;;;;32.85;15.90;;;;;;;0.30;100.00;101718.69;5055257;28;20028;-68
2022/12/04 10:31:55;;;;;;;28.15;13.02;;;;;;;0.30;100.00;101716.06;5055765;28;20028;-67
2022/12/04 10:34:30;;;;;;;32.30;16.13;;;;;;;0.30;100.00;101714.28;5055059;28;20078;-67
2022/12/04 10:37:05;;;;;;;27.83;11.85;;;;;;;0.27;100.00;101711.88;5055515;28;20439;-67
2022/12/04 10:39:41;;;;;;;28.75;13.68;;;;;;;0.26;100.00;101707.56;5054832;28;20142;-67
2022/12/04 10:42:13;;;;;;;27.77;14.65;;;;;;;0.32;100.00;101715.03;5055668;28;20024;-67
2022/12/04 10:44:38;;;;;;;28.63;14.88;;;;;;;0.29;100.00;101720.50;5055058;28;20028;-67
2022/12/04 10:47:05;;;;;;;29.10;13.57;;;;;;;0.21;100.00;101718.41;5053313;28;20507;-67
2022/12/04 10:49:35;;;;;;;30.08;14.30;;;;;;;0.32;100.00;101733.38;5053906;28;20100;-67
2022/12/04 10:52:01;;;;;;;30.10;15.13;;;;;;;0.28;100.00;101717.97;5055450;28;20047;-67
2022/12/04 10:54:29;;;;;;;32.80;15.32;;;;;;;0.34;100.00;101730.63;5051204;28;20093;-67
2022/12/04 10:56:57;;;;;;;29.63;13.05;;;;;;;0.29;100.00;101720.50;5048280;28;20032;-67
2022/12/04 10:59:23;;;;;;;27.38;13.85;;;;;;;0.31;100.00;101720.38;5049178;28;20074;-67
2022/12/04 11:01:51;;;;;;;28.58;13.73;;;;;;;0.26;100.00;101712.81;5049926;28;20111;-67
2022/12/04 11:04:21;;;;;;;30.55;16.38;;;;;;;0.36;100.00;101713.00;5050177;28;20503;-67
2022/12/04 11:06:48;;;;;;;31.98;14.93;;;;;;;0.38;100.00;101700.63;5050743;28;20104;-67
2022/12/04 11:09:32;;;;;;;26.80;13.90;;;;;;;0.30;100.00;101698.53;5049179;28;20041;-67
2022/12/04 11:12:17;;;;;;;35.75;14.45;;;;;;;0.34;100.00;101696.53;5050326;28;20513;-67
2022/12/04 11:14:43;;;;;;;31.50;13.32;;;;;;;0.34;100.00;101692.16;5049326;28;20048;-67
2022/12/04 11:17:17;;;;;;;30.30;14.50;;;;;;;0.35;100.00;101688.56;5050228;28;20024;-67
2022/12/04 11:19:44;;;;;;;32.13;15.77;;;;;;;0.35;100.00;101683.31;5049834;28;20419;-67
2022/12/04 11:22:16;;;;;;;30.23;14.88;;;;;;;0.41;100.00;101687.28;5048676;28;20025;-67
2022/12/04 11:24:48;;;;;;;28.80;14.80;;;;;;;0.40;100.00;101681.19;5049651;28;20028;-67
2022/12/04 11:27:22;;;;;;;;;;;;;;;0.43;100.00;101690.63;5049941;28;20025;-67